createdAt,value
2023-03-07T00:01:24.422Z,11.80
2023-03-07T00:03:52.800Z,11.70
2023-03-07T00:06:21.546Z,13.20
2023-03-07T00:08:54.482Z,11.00
2023-03-07T00:11:22.774Z,12.20
2023-03-07T00:13:50.935Z,14.40
2023-03-07T00:16:21.638Z,12.20
2023-03-07T00:18:50.442Z,11.30
2023-03-07T00:21:21.738Z,9.60
2023-03-07T00:23:52.810Z,10.70
2023-03-07T00:26:22.963Z,11.60
2023-03-07T00:28:52.510Z,13.10
2023-03-07T00:31:21.752Z,11.60
2023-03-07T00:33:49.844Z,14.30
2023-03-07T00:36:20.872Z,9.30
2023-03-07T00:38:50.101Z,9.90
2023-03-07T00:41:21.529Z,10.00
2023-03-07T00:43:49.945Z,9.90
2023-03-07T00:46:20.006Z,10.50
2023-03-07T00:48:48.781Z,10.60
2023-03-07T00:51:18.537Z,10.40
2023-03-07T00:53:46.723Z,10.60
2023-03-07T00:56:18.003Z,10.20
2023-03-07T00:58:47.469Z,8.60
2023-03-07T01:01:18.881Z,10.60
2023-03-07T01:03:53.133Z,9.30
2023-03-07T01:06:27.607Z,9.50
2023-03-07T01:08:58.149Z,9.40
2023-03-07T01:11:28.335Z,9.50
2023-03-07T01:14:01.232Z,8.50
2023-03-07T01:16:31.911Z,9.80
2023-03-07T01:19:03.700Z,9.10
2023-03-07T01:21:37.916Z,8.00
2023-03-07T01:24:08.289Z,8.40
2023-03-07T01:26:37.510Z,8.60
2023-03-07T01:29:07.155Z,11.80
2023-03-07T01:31:35.983Z,9.60
2023-03-07T01:34:04.916Z,8.60
2023-03-07T01:36:34.958Z,10.10
2023-03-07T01:39:17.049Z,8.60
2023-03-07T01:41:46.001Z,8.30
2023-03-07T01:44:15.960Z,10.00
2023-03-07T01:46:50.741Z,10.80
2023-03-07T01:49:23.986Z,9.40
2023-03-07T01:51:58.910Z,9.80
2023-03-07T01:54:29.055Z,9.70
2023-03-07T01:56:58.179Z,8.10
2023-03-07T01:59:40.745Z,7.80
2023-03-07T02:02:17.224Z,10.30
2023-03-07T02:05:15.219Z,8.70
2023-03-07T02:07:48.685Z,8.20
2023-03-07T02:10:19.129Z,8.60
2023-03-07T02:12:47.736Z,9.30
2023-03-07T02:15:16.071Z,9.00
2023-03-07T02:17:45.574Z,10.00
2023-03-07T02:20:47.493Z,9.50
2023-03-07T02:23:29.870Z,9.20
2023-03-07T02:26:16.220Z,8.80
2023-03-07T02:28:46.036Z,10.70
2023-03-07T02:31:14.824Z,10.70
2023-03-07T02:33:42.947Z,9.30
2023-03-07T02:36:19.098Z,8.90
2023-03-07T02:38:48.999Z,8.20
2023-03-07T02:41:21.221Z,8.10
2023-03-07T02:43:49.438Z,8.40
2023-03-07T02:46:18.097Z,9.70
2023-03-07T02:48:47.054Z,9.50
2023-03-07T02:51:15.682Z,9.80
2023-03-07T02:53:44.195Z,10.80
2023-03-07T02:56:12.974Z,10.20
2023-03-07T02:58:41.001Z,12.60
2023-03-07T03:01:09.142Z,9.90
2023-03-07T03:03:37.470Z,10.90
2023-03-07T03:06:05.770Z,11.70
2023-03-07T03:08:33.901Z,10.10
2023-03-07T03:11:01.938Z,11.60
2023-03-07T03:13:30.072Z,10.50
2023-03-07T03:15:59.945Z,10.70
2023-03-07T03:18:28.907Z,11.70
2023-03-07T03:20:57.528Z,10.10
2023-03-07T03:23:28.416Z,10.50
2023-03-07T03:28:37.723Z,11.50
2023-03-07T03:31:09.423Z,12.50
2023-03-07T03:33:38.104Z,10.70
2023-03-07T03:36:10.259Z,11.00
2023-03-07T03:38:39.322Z,11.40
2023-03-07T03:41:08.849Z,12.10
2023-03-07T03:43:37.140Z,10.70
2023-03-07T03:46:05.453Z,9.20
2023-03-07T03:48:33.707Z,8.30
2023-03-07T03:51:07.451Z,9.20
2023-03-07T03:53:37.851Z,9.50
2023-03-07T03:56:17.425Z,8.50
2023-03-07T03:58:54.328Z,10.10
2023-03-07T04:01:24.492Z,12.00
2023-03-07T04:03:55.430Z,13.10
2023-03-07T04:08:53.698Z,8.80
2023-03-07T04:11:23.732Z,8.40
2023-03-07T04:13:52.864Z,7.60
2023-03-07T04:16:22.748Z,9.20
2023-03-07T04:18:52.614Z,8.70
2023-03-07T04:21:21.798Z,10.40
2023-03-07T04:23:50.657Z,10.40
2023-03-07T04:26:18.763Z,10.90
2023-03-07T04:28:46.936Z,8.90
2023-03-07T04:31:20.541Z,15.30
2023-03-07T04:33:49.632Z,10.00
2023-03-07T04:36:18.688Z,9.90
2023-03-07T04:38:48.167Z,10.90
2023-03-07T04:41:22.066Z,12.10
2023-03-07T04:43:50.223Z,9.50
2023-03-07T04:46:19.051Z,9.00
2023-03-07T04:48:47.663Z,9.40
2023-03-07T04:51:15.800Z,10.70
2023-03-07T04:53:44.167Z,10.70
2023-03-07T04:56:15.385Z,10.60
2023-03-07T04:58:44.928Z,10.40
2023-03-07T05:01:13.267Z,13.70
2023-03-07T05:03:41.505Z,9.80
2023-03-07T05:06:15.846Z,11.10
2023-03-07T05:08:44.180Z,12.20
2023-03-07T05:11:12.333Z,10.10
2023-03-07T05:13:40.580Z,9.50
2023-03-07T05:16:08.780Z,10.40
2023-03-07T05:18:36.971Z,12.50
2023-03-07T05:21:05.204Z,12.60
2023-03-07T05:23:33.322Z,12.10
2023-03-07T05:26:01.447Z,17.50
2023-03-07T05:28:29.513Z,13.60
2023-03-07T05:30:57.601Z,13.40
2023-03-07T05:33:25.746Z,9.80
2023-03-07T05:35:55.725Z,13.50
2023-03-07T05:38:23.871Z,15.40
2023-03-07T05:40:51.919Z,15.10
2023-03-07T05:43:20.100Z,14.30
2023-03-07T05:45:48.200Z,15.60
2023-03-07T05:48:16.301Z,17.50
2023-03-07T05:50:44.388Z,16.70
2023-03-07T05:53:12.455Z,14.80
2023-03-07T05:55:40.630Z,14.80
2023-03-07T05:58:08.712Z,16.00
2023-03-07T06:00:36.826Z,17.00
2023-03-07T06:03:05.140Z,16.80
2023-03-07T06:05:33.264Z,13.50
2023-03-07T06:08:01.376Z,14.20
2023-03-07T06:10:29.590Z,13.00
2023-03-07T06:12:57.655Z,13.80
2023-03-07T06:15:25.820Z,11.90
2023-03-07T06:17:54.138Z,12.80
2023-03-07T06:20:22.221Z,12.40
2023-03-07T06:22:50.390Z,13.10
2023-03-07T06:25:21.817Z,12.80
2023-03-07T06:27:50.402Z,14.40
2023-03-07T06:30:18.833Z,15.10
2023-03-07T06:32:46.937Z,13.20
2023-03-07T06:35:15.156Z,16.60
2023-03-07T06:37:43.225Z,16.60
2023-03-07T06:40:11.696Z,18.40
2023-03-07T06:42:39.800Z,17.30
2023-03-07T06:45:08.356Z,18.20
2023-03-07T06:47:36.668Z,16.90
2023-03-07T06:50:05.210Z,13.70
2023-03-07T06:52:33.424Z,16.20
2023-03-07T06:55:01.473Z,14.70
2023-03-07T06:57:29.980Z,16.80
2023-03-07T06:59:58.170Z,16.40
2023-03-07T07:02:26.590Z,14.10
2023-03-07T07:04:54.886Z,15.50
2023-03-07T07:07:22.973Z,11.90
2023-03-07T07:09:51.478Z,16.40
2023-03-07T07:12:19.672Z,14.30
2023-03-07T07:14:47.979Z,12.10
2023-03-07T07:17:16.351Z,13.60
2023-03-07T07:19:44.960Z,17.80
2023-03-07T07:22:13.063Z,21.40
2023-03-07T07:24:41.139Z,19.20
2023-03-07T07:27:10.914Z,22.50
2023-03-07T07:29:40.728Z,21.30
2023-03-07T07:32:09.217Z,17.70
2023-03-07T07:34:37.384Z,22.20
2023-03-07T07:37:05.655Z,20.80
2023-03-07T07:39:33.774Z,16.00
2023-03-07T07:42:01.813Z,17.40
2023-03-07T07:44:31.253Z,13.40
2023-03-07T07:46:59.374Z,11.00
2023-03-07T07:49:27.584Z,13.40
2023-03-07T07:51:55.723Z,9.60
2023-03-07T07:54:25.132Z,11.70
2023-03-07T07:56:53.261Z,11.00
2023-03-07T07:59:21.392Z,10.50
2023-03-07T08:01:49.527Z,12.50
2023-03-07T08:04:17.630Z,10.70
2023-03-07T08:06:45.799Z,10.30
2023-03-07T08:09:14.798Z,12.30
2023-03-07T08:11:42.850Z,12.90
2023-03-07T08:14:10.903Z,11.40
2023-03-07T08:16:38.954Z,11.20
2023-03-07T08:19:07.064Z,10.40
2023-03-07T08:21:35.135Z,13.00
2023-03-07T08:24:04.272Z,10.00
2023-03-07T08:26:32.318Z,10.10
2023-03-07T08:29:00.528Z,11.70
2023-03-07T08:31:28.708Z,9.40
2023-03-07T08:33:56.813Z,10.50
2023-03-07T08:36:24.922Z,11.50
2023-03-07T08:38:53.635Z,10.10
2023-03-07T08:41:22.969Z,10.40
2023-03-07T08:43:51.355Z,11.00
2023-03-07T08:46:19.547Z,12.20
2023-03-07T08:48:47.759Z,12.80
2023-03-07T08:51:18.079Z,9.30
2023-03-07T08:53:46.684Z,9.70
2023-03-07T08:56:17.023Z,11.90
2023-03-07T08:58:45.501Z,10.80
2023-03-07T09:01:13.927Z,9.40
2023-03-07T09:03:43.339Z,9.80
2023-03-07T09:06:19.703Z,9.30
2023-03-07T09:08:48.589Z,10.00
2023-03-07T09:11:18.204Z,10.00
2023-03-07T09:13:52.400Z,11.60
2023-03-07T09:16:22.515Z,13.40
2023-03-07T09:18:50.996Z,11.20
2023-03-07T09:21:20.050Z,10.70
2023-03-07T09:23:48.405Z,11.60
2023-03-07T09:26:16.967Z,14.60
2023-03-07T09:28:45.279Z,10.70
2023-03-07T09:31:15.276Z,9.70
2023-03-07T09:33:46.555Z,9.80
2023-03-07T09:36:16.570Z,10.10
2023-03-07T09:38:44.729Z,10.20
2023-03-07T09:41:18.856Z,7.90
2023-03-07T09:44:01.995Z,7.20
2023-03-07T09:46:35.795Z,8.40
2023-03-07T09:49:39.389Z,8.30
2023-03-07T09:52:14.584Z,8.00
2023-03-07T09:54:50.504Z,8.40
2023-03-07T09:57:24.543Z,8.10
2023-03-07T09:59:59.328Z,8.00
2023-03-07T10:02:39.596Z,9.10
2023-03-07T10:05:29.711Z,7.90
2023-03-07T10:07:58.604Z,9.40
2023-03-07T10:10:38.063Z,6.50
2023-03-07T10:13:31.008Z,6.90
2023-03-07T10:16:06.242Z,7.40
2023-03-07T10:18:45.722Z,13.40
2023-03-07T10:21:16.754Z,7.40
2023-03-07T10:26:43.413Z,5.50
2023-03-07T10:29:24.302Z,7.10
2023-03-07T10:34:32.422Z,5.70
2023-03-07T10:37:11.187Z,5.70
2023-03-07T10:39:52.544Z,5.70
2023-03-07T10:42:25.461Z,5.00
2023-03-07T10:44:54.019Z,6.20
2023-03-07T10:47:30.268Z,4.60
2023-03-07T10:50:21.395Z,5.80
2023-03-07T10:52:53.906Z,6.50
2023-03-07T10:55:40.296Z,6.30
2023-03-07T10:58:28.316Z,4.70
2023-03-07T11:01:08.671Z,5.70
2023-03-07T11:03:55.803Z,5.80
2023-03-07T11:06:29.336Z,5.60
2023-03-07T11:08:58.171Z,5.70
2023-03-07T11:11:32.401Z,5.00
2023-03-07T11:14:14.496Z,4.00
2023-03-07T11:16:51.605Z,5.00
2023-03-07T11:19:38.291Z,5.70
2023-03-07T11:22:26.222Z,5.40
2023-03-07T11:25:01.630Z,4.60
2023-03-07T11:27:48.010Z,5.60
2023-03-07T11:30:20.114Z,5.00
2023-03-07T11:32:52.160Z,5.20
2023-03-07T11:35:26.039Z,5.40
2023-03-07T11:38:13.562Z,5.40
2023-03-07T11:41:00.699Z,4.30
2023-03-07T11:43:56.610Z,4.10
2023-03-07T11:46:50.895Z,5.80
2023-03-07T11:49:43.205Z,6.80
2023-03-07T11:52:33.076Z,8.20
2023-03-07T11:55:19.531Z,8.60
2023-03-07T11:58:15.072Z,9.00
2023-03-07T12:01:11.581Z,7.90
2023-03-07T12:03:55.073Z,9.80
2023-03-07T12:06:35.303Z,11.00
2023-03-07T12:09:12.215Z,8.80
2023-03-07T12:12:01.780Z,8.60
2023-03-07T12:14:39.829Z,9.40
2023-03-07T12:17:10.629Z,8.20
2023-03-07T12:22:29.284Z,13.10
2023-03-07T12:25:08.464Z,8.70
2023-03-07T12:27:59.552Z,10.80
2023-03-07T12:30:52.944Z,9.30
2023-03-07T12:33:40.695Z,10.60
2023-03-07T12:36:18.725Z,10.70
2023-03-07T12:39:02.585Z,13.60
2023-03-07T12:41:39.840Z,9.80
2023-03-07T12:44:15.514Z,8.30
2023-03-07T12:46:58.277Z,9.80
2023-03-07T12:49:37.966Z,10.60
2023-03-07T12:52:49.934Z,10.20
2023-03-07T12:55:28.117Z,7.80
2023-03-07T12:58:06.930Z,9.20
2023-03-07T13:00:43.566Z,9.90
2023-03-07T13:03:20.945Z,9.00
2023-03-07T13:05:49.733Z,8.80
2023-03-07T13:08:23.724Z,9.40
2023-03-07T13:10:51.917Z,9.60
2023-03-07T13:13:44.556Z,7.30
2023-03-07T13:16:31.190Z,8.30
2023-03-07T13:19:36.638Z,8.30
2023-03-07T13:22:16.924Z,8.00
2023-03-07T13:24:46.713Z,8.20
2023-03-07T13:27:20.791Z,8.00
2023-03-07T13:30:10.833Z,8.30
2023-03-07T13:32:56.833Z,9.00
2023-03-07T13:35:28.437Z,10.00
2023-03-07T13:37:59.330Z,8.80
2023-03-07T13:42:57.712Z,7.90
2023-03-07T13:45:37.984Z,8.60
2023-03-07T13:48:12.197Z,9.60
2023-03-07T13:50:43.251Z,6.90
2023-03-07T13:53:40.422Z,14.20
2023-03-07T13:56:17.954Z,10.00
2023-03-07T13:59:02.893Z,9.30
2023-03-07T14:01:41.991Z,9.20
2023-03-07T14:04:41.286Z,8.90
2023-03-07T14:07:15.433Z,8.70
2023-03-07T14:10:22.499Z,8.30
2023-03-07T14:13:09.987Z,8.90
2023-03-07T14:16:05.939Z,10.00
2023-03-07T14:18:36.848Z,6.80
2023-03-07T14:23:51.293Z,9.40
2023-03-07T14:26:28.924Z,9.40
2023-03-07T14:29:02.285Z,8.40
2023-03-07T14:31:41.964Z,8.90
2023-03-07T14:34:22.020Z,9.10
2023-03-07T14:37:02.233Z,11.30
2023-03-07T14:39:39.303Z,10.50
2023-03-07T14:42:49.580Z,9.20
2023-03-07T14:45:23.481Z,9.80
2023-03-07T14:48:03.664Z,12.50
2023-03-07T14:50:32.729Z,10.70
2023-03-07T14:53:05.746Z,10.40
2023-03-07T14:55:39.933Z,16.00
2023-03-07T14:58:08.178Z,10.70
2023-03-07T15:00:36.496Z,16.30
2023-03-07T15:03:12.553Z,12.50
2023-03-07T15:05:50.475Z,11.70
2023-03-07T15:08:30.552Z,12.00
2023-03-07T15:11:24.844Z,12.20
2023-03-07T15:14:07.278Z,12.70
2023-03-07T15:16:42.486Z,12.50
2023-03-07T15:19:16.313Z,13.30
2023-03-07T15:21:48.009Z,11.30
2023-03-07T15:24:28.168Z,11.80
2023-03-07T15:26:56.487Z,11.40
2023-03-07T15:29:30.401Z,14.00
2023-03-07T15:32:04.428Z,10.00
2023-03-07T15:34:39.264Z,14.20
2023-03-07T15:37:19.589Z,10.20
2023-03-07T15:40:18.145Z,11.50
2023-03-07T15:42:56.262Z,12.40
2023-03-07T15:45:45.724Z,10.70
2023-03-07T15:48:36.796Z,11.70
2023-03-07T15:51:19.692Z,16.10
2023-03-07T15:53:57.930Z,14.50
2023-03-07T15:56:34.683Z,15.70
2023-03-07T15:59:07.420Z,12.10
2023-03-07T16:01:35.741Z,12.80
2023-03-07T16:04:04.491Z,13.70
2023-03-07T16:06:43.196Z,13.30
2023-03-07T16:09:17.564Z,14.90
2023-03-07T16:11:47.199Z,20.50
2023-03-07T16:14:26.339Z,13.80
2023-03-07T16:16:56.778Z,14.50
2023-03-07T16:19:25.040Z,11.90
2023-03-07T16:21:55.067Z,11.20
2023-03-07T16:24:23.147Z,14.50
2023-03-07T16:26:51.368Z,12.50
2023-03-07T16:29:22.008Z,12.00
2023-03-07T16:31:50.265Z,12.40
2023-03-07T16:34:21.486Z,10.60
2023-03-07T16:36:49.559Z,12.10
2023-03-07T16:39:18.645Z,11.40
2023-03-07T16:41:49.527Z,13.50
2023-03-07T16:46:53.357Z,12.60
2023-03-07T16:49:21.874Z,15.10
2023-03-07T16:52:04.597Z,12.60
2023-03-07T16:54:34.342Z,12.80
2023-03-07T16:57:02.948Z,14.10
2023-03-07T16:59:37.353Z,12.80
2023-03-07T17:02:20.796Z,17.90
2023-03-07T17:04:48.976Z,15.40
2023-03-07T17:07:22.975Z,16.40
2023-03-07T17:09:51.148Z,15.40
2023-03-07T17:12:22.644Z,18.00
2023-03-07T17:14:50.949Z,14.70
2023-03-07T17:17:27.076Z,16.40
2023-03-07T17:19:55.215Z,14.10
2023-03-07T17:22:23.217Z,14.50
2023-03-07T17:24:51.400Z,16.10
2023-03-07T17:27:20.134Z,13.20
2023-03-07T17:29:51.579Z,13.60
2023-03-07T17:32:19.682Z,15.20
2023-03-07T17:34:47.907Z,15.80
2023-03-07T17:37:16.183Z,12.40
2023-03-07T17:39:45.789Z,14.80
2023-03-07T17:42:14.092Z,12.70
2023-03-07T17:44:42.342Z,12.70
2023-03-07T17:47:15.094Z,15.10
2023-03-07T17:49:48.490Z,13.30
2023-03-07T17:52:16.659Z,14.50
2023-03-07T17:54:46.268Z,13.70
2023-03-07T17:57:14.918Z,12.50
2023-03-07T17:59:43.141Z,14.30
2023-03-07T18:02:15.377Z,20.70
2023-03-07T18:04:43.465Z,15.20
2023-03-07T18:07:11.633Z,13.20
2023-03-07T18:09:39.770Z,13.60
2023-03-07T18:12:08.654Z,12.40
2023-03-07T18:14:36.836Z,15.80
2023-03-07T18:17:05.048Z,14.40
2023-03-07T18:19:33.142Z,12.40
2023-03-07T18:22:01.196Z,13.00
2023-03-07T18:24:30.246Z,20.60
2023-03-07T18:26:59.676Z,15.10
2023-03-07T18:29:29.008Z,13.90
2023-03-07T18:31:57.362Z,15.30
2023-03-07T18:34:25.542Z,14.90
2023-03-07T18:36:54.503Z,14.90
2023-03-07T18:39:23.721Z,15.90
2023-03-07T18:41:52.022Z,14.80
2023-03-07T18:44:20.299Z,14.90
2023-03-07T18:46:48.538Z,16.70
2023-03-07T18:49:16.766Z,18.10
2023-03-07T18:51:46.163Z,19.30
2023-03-07T18:54:14.372Z,15.10
2023-03-07T18:56:45.692Z,17.70
2023-03-07T18:59:14.128Z,15.10
2023-03-07T19:01:42.409Z,16.50
2023-03-07T19:04:11.820Z,15.90
2023-03-07T19:06:41.801Z,15.20
2023-03-07T19:09:16.057Z,19.20
2023-03-07T19:11:44.424Z,17.40
2023-03-07T19:14:12.859Z,19.70
2023-03-07T19:16:41.204Z,16.10
2023-03-07T19:19:09.361Z,18.40
2023-03-07T19:21:37.517Z,18.00
2023-03-07T19:24:08.045Z,16.40
2023-03-07T19:26:36.166Z,19.30
2023-03-07T19:29:04.441Z,18.90
2023-03-07T19:31:33.300Z,14.90
2023-03-07T19:34:02.803Z,16.50
2023-03-07T19:36:33.130Z,16.70
2023-03-07T19:39:01.445Z,19.10
2023-03-07T19:41:31.571Z,19.90
2023-03-07T19:44:01.061Z,19.30
2023-03-07T19:46:29.159Z,16.90
2023-03-07T19:48:57.265Z,19.80
2023-03-07T19:51:26.540Z,19.00
2023-03-07T19:53:57.330Z,20.60
2023-03-07T19:56:28.402Z,19.40
2023-03-07T19:58:57.869Z,20.10
2023-03-07T20:01:26.756Z,27.50
2023-03-07T20:03:55.619Z,18.70
2023-03-07T20:06:26.406Z,16.50
2023-03-07T20:08:55.212Z,19.60
2023-03-07T20:11:31.979Z,17.50
2023-03-07T20:14:05.010Z,18.00
2023-03-07T20:16:34.453Z,20.90
2023-03-07T20:19:06.282Z,19.00
2023-03-07T20:21:36.528Z,21.50
2023-03-07T20:24:05.198Z,19.80
2023-03-07T20:26:39.072Z,20.00
2023-03-07T20:29:09.469Z,22.30
2023-03-07T20:31:39.420Z,23.90
2023-03-07T20:34:08.635Z,24.10
2023-03-07T20:36:38.047Z,21.40
2023-03-07T20:39:08.472Z,24.00
2023-03-07T20:41:36.689Z,20.20
2023-03-07T20:44:06.869Z,20.20
2023-03-07T20:46:36.280Z,20.10
2023-03-07T20:49:04.740Z,24.10
2023-03-07T20:51:35.160Z,22.80
2023-03-07T20:54:06.690Z,21.70
2023-03-07T20:56:37.369Z,20.00
2023-03-07T20:59:06.330Z,23.50
2023-03-07T21:01:35.456Z,19.60
2023-03-07T21:04:11.356Z,19.10
2023-03-07T21:06:42.562Z,21.50
2023-03-07T21:09:12.630Z,21.20
2023-03-07T21:11:47.140Z,22.80
2023-03-07T21:14:17.207Z,19.10
2023-03-07T21:16:45.344Z,22.00
2023-03-07T21:19:13.753Z,20.70
2023-03-07T21:21:42.343Z,19.70
2023-03-07T21:24:12.488Z,22.70
2023-03-07T21:26:40.612Z,22.40
2023-03-07T21:29:10.899Z,21.40
2023-03-07T21:31:39.155Z,21.30
2023-03-07T21:34:10.800Z,27.10
2023-03-07T21:36:39.118Z,24.60
2023-03-07T21:39:10.065Z,21.70
2023-03-07T21:41:38.260Z,19.80
2023-03-07T21:44:06.465Z,20.10
2023-03-07T21:46:34.709Z,20.20
2023-03-07T21:49:03.086Z,18.90
2023-03-07T21:51:31.203Z,23.40
2023-03-07T21:53:59.898Z,19.40
2023-03-07T21:56:28.168Z,21.00
2023-03-07T21:58:56.322Z,23.30
2023-03-07T22:01:27.485Z,21.80
2023-03-07T22:03:57.799Z,22.70
2023-03-07T22:06:27.286Z,20.60
2023-03-07T22:08:55.707Z,20.80
2023-03-07T22:11:23.785Z,22.00
2023-03-07T22:13:51.893Z,19.80
2023-03-07T22:16:21.149Z,19.70
2023-03-07T22:18:56.325Z,23.60
2023-03-07T22:21:27.961Z,19.10
2023-03-07T22:23:58.280Z,24.10
2023-03-07T22:26:27.984Z,59.10
2023-03-07T22:28:56.341Z,33.00
2023-03-07T22:31:24.837Z,26.10
2023-03-07T22:33:53.098Z,27.20
2023-03-07T22:36:21.504Z,31.30
2023-03-07T22:38:54.321Z,28.70
2023-03-07T22:41:24.285Z,21.80
2023-03-07T22:43:52.671Z,22.10
2023-03-07T22:46:20.969Z,31.60
2023-03-07T22:48:52.576Z,34.00
2023-03-07T22:51:21.594Z,23.70
2023-03-07T22:53:50.257Z,22.50
2023-03-07T22:56:27.413Z,22.30
2023-03-07T22:58:55.817Z,24.30
2023-03-07T23:01:26.586Z,21.60
2023-03-07T23:03:55.923Z,20.10
2023-03-07T23:06:27.744Z,22.30
2023-03-07T23:08:56.713Z,20.60
2023-03-07T23:11:25.809Z,25.70
2023-03-07T23:13:54.446Z,22.20
2023-03-07T23:16:26.431Z,20.80
2023-03-07T23:18:56.586Z,23.30
2023-03-07T23:21:27.947Z,16.90
2023-03-07T23:23:56.608Z,24.40
2023-03-07T23:26:34.298Z,22.50
2023-03-07T23:29:03.624Z,17.40
2023-03-07T23:31:37.540Z,23.80
2023-03-07T23:34:08.810Z,21.60
2023-03-07T23:36:36.985Z,19.10
2023-03-07T23:39:05.461Z,25.50
2023-03-07T23:41:33.496Z,23.00
2023-03-07T23:44:02.192Z,18.80
2023-03-07T23:46:31.145Z,20.40
2023-03-07T23:48:59.604Z,22.60
2023-03-07T23:51:27.858Z,17.60
2023-03-07T23:53:56.032Z,19.30
2023-03-07T23:56:24.196Z,30.90
2023-03-07T23:58:52.750Z,30.30
